Terminal Aerodrome Forecast
Issued by NWS

Home | Current Version | Previous Version | Text Only | Print | Product List | Glossary On
Versions: 1 2 3 4 5 6 7 8 9 10 11 12 13 14 15 16 17 18 19
166
FTUS46 KMFR 060546
TAFLMT
TAF
KLMT 060546Z 0606/0706 33006KT P6SM -SHRA BKN040 OVC080
     FM060900 VRB03KT P6SM VCSH BKN025 OVC040
     FM061500 36012KT P6SM SCT025 BKN040
     FM061900 36018G25KT P6SM -SHRA VCTS OVC040CB
     FM070300 34012KT P6SM -SHRA BKN040 OVC100=

USA.gov is the U.S. government's official web portal to all federal, state and local government web resources and services.